sensor_id;sensor_type;location;lat;lon;timestamp;P1;durP1;ratioP1;P2;durP2;ratioP2
10347;SDS011;5220;43.192;23.284;2023-02-18T00:01:20;4.90;;;3.40;;
10347;SDS011;5220;43.192;23.284;2023-02-18T00:03:48;7.73;;;4.77;;
10347;SDS011;5220;43.192;23.284;2023-02-18T00:06:17;9.67;;;3.57;;
10347;SDS011;5220;43.192;23.284;2023-02-18T00:08:44;6.05;;;3.00;;
10347;SDS011;5220;43.192;23.284;2023-02-18T00:11:12;8.15;;;2.85;;
10347;SDS011;5220;43.192;23.284;2023-02-18T00:13:39;4.33;;;3.00;;
10347;SDS011;5220;43.192;23.284;2023-02-18T00:16:09;4.30;;;3.00;;
10347;SDS011;5220;43.192;23.284;2023-02-18T00:18:36;7.70;;;3.43;;
10347;SDS011;5220;43.192;23.284;2023-02-18T00:21:04;8.03;;;3.77;;
10347;SDS011;5220;43.192;23.284;2023-02-18T00:23:31;6.70;;;2.90;;
10347;SDS011;5220;43.192;23.284;2023-02-18T00:25:59;13.95;;;6.90;;
10347;SDS011;5220;43.192;23.284;2023-02-18T00:28:26;8.97;;;5.00;;
10347;SDS011;5220;43.192;23.284;2023-02-18T00:30:53;15.10;;;6.97;;
10347;SDS011;5220;43.192;23.284;2023-02-18T00:33:21;13.77;;;6.80;;
10347;SDS011;5220;43.192;23.284;2023-02-18T00:35:48;21.17;;;11.27;;
10347;SDS011;5220;43.192;23.284;2023-02-18T00:38:15;12.57;;;7.90;;
10347;SDS011;5220;43.192;23.284;2023-02-18T00:40:41;15.67;;;8.77;;
10347;SDS011;5220;43.192;23.284;2023-02-18T00:43:08;14.80;;;7.83;;
10347;SDS011;5220;43.192;23.284;2023-02-18T00:45:36;13.40;;;8.47;;
10347;SDS011;5220;43.192;23.284;2023-02-18T00:48:02;10.97;;;5.90;;
10347;SDS011;5220;43.192;23.284;2023-02-18T00:50:31;12.73;;;7.93;;
10347;SDS011;5220;43.192;23.284;2023-02-18T00:52:57;14.60;;;8.50;;
10347;SDS011;5220;43.192;23.284;2023-02-18T00:55:24;10.07;;;6.80;;
10347;SDS011;5220;43.192;23.284;2023-02-18T00:57:51;11.33;;;6.23;;
10347;SDS011;5220;43.192;23.284;2023-02-18T01:00:17;8.30;;;3.33;;
10347;SDS011;5220;43.192;23.284;2023-02-18T01:02:44;5.47;;;3.13;;
10347;SDS011;5220;43.192;23.284;2023-02-18T01:05:11;4.97;;;3.10;;
10347;SDS011;5220;43.192;23.284;2023-02-18T01:07:39;4.33;;;3.23;;
10347;SDS011;5220;43.192;23.284;2023-02-18T01:10:06;5.60;;;3.30;;
10347;SDS011;5220;43.192;23.284;2023-02-18T01:12:33;18.97;;;11.47;;
10347;SDS011;5220;43.192;23.284;2023-02-18T01:15:00;19.77;;;11.73;;
10347;SDS011;5220;43.192;23.284;2023-02-18T01:17:27;6.37;;;4.30;;
10347;SDS011;5220;43.192;23.284;2023-02-18T01:19:54;7.53;;;3.70;;
10347;SDS011;5220;43.192;23.284;2023-02-18T01:22:20;5.60;;;3.33;;
10347;SDS011;5220;43.192;23.284;2023-02-18T01:24:49;4.03;;;3.00;;
10347;SDS011;5220;43.192;23.284;2023-02-18T01:27:15;6.68;;;2.70;;
10347;SDS011;5220;43.192;23.284;2023-02-18T01:29:42;4.13;;;2.87;;
10347;SDS011;5220;43.192;23.284;2023-02-18T01:32:09;4.07;;;2.40;;
10347;SDS011;5220;43.192;23.284;2023-02-18T01:34:36;4.67;;;3.33;;
10347;SDS011;5220;43.192;23.284;2023-02-18T01:37:02;4.77;;;2.50;;
10347;SDS011;5220;43.192;23.284;2023-02-18T01:39:29;6.57;;;3.57;;
10347;SDS011;5220;43.192;23.284;2023-02-18T01:41:57;3.00;;;2.33;;
10347;SDS011;5220;43.192;23.284;2023-02-18T01:44:25;5.30;;;2.30;;
10347;SDS011;5220;43.192;23.284;2023-02-18T01:46:53;3.57;;;2.30;;
10347;SDS011;5220;43.192;23.284;2023-02-18T01:49:21;4.63;;;2.57;;
10347;SDS011;5220;43.192;23.284;2023-02-18T01:51:52;2.33;;;2.10;;
10347;SDS011;5220;43.192;23.284;2023-02-18T01:54:23;2.37;;;1.80;;
10347;SDS011;5220;43.192;23.284;2023-02-18T01:56:55;3.53;;;2.00;;
10347;SDS011;5220;43.192;23.284;2023-02-18T01:59:27;5.63;;;2.20;;
10347;SDS011;5220;43.192;23.284;2023-02-18T02:01:58;2.30;;;2.10;;
10347;SDS011;5220;43.192;23.284;2023-02-18T02:04:25;3.03;;;2.07;;
10347;SDS011;5220;43.192;23.284;2023-02-18T02:06:52;3.87;;;2.23;;
10347;SDS011;5220;43.192;23.284;2023-02-18T02:09:19;4.07;;;1.90;;
10347;SDS011;5220;43.192;23.284;2023-02-18T02:11:53;5.27;;;1.90;;
10347;SDS011;5220;43.192;23.284;2023-02-18T02:17:41;3.27;;;2.07;;
10347;SDS011;5220;43.192;23.284;2023-02-18T02:20:33;3.17;;;2.07;;
10347;SDS011;5220;43.192;23.284;2023-02-18T02:23:24;4.63;;;2.17;;
10347;SDS011;5220;43.192;23.284;2023-02-18T02:29:18;2.70;;;2.00;;
10347;SDS011;5220;43.192;23.284;2023-02-18T02:32:06;3.70;;;2.33;;
10347;SDS011;5220;43.192;23.284;2023-02-18T02:34:55;2.37;;;2.17;;
10347;SDS011;5220;43.192;23.284;2023-02-18T02:37:28;6.10;;;2.57;;
10347;SDS011;5220;43.192;23.284;2023-02-18T02:40:06;4.70;;;3.00;;
10347;SDS011;5220;43.192;23.284;2023-02-18T02:42:45;3.97;;;2.77;;
10347;SDS011;5220;43.192;23.284;2023-02-18T02:45:19;10.63;;;5.93;;
10347;SDS011;5220;43.192;23.284;2023-02-18T02:47:55;7.07;;;4.77;;
10347;SDS011;5220;43.192;23.284;2023-02-18T02:50:33;5.47;;;3.63;;
10347;SDS011;5220;43.192;23.284;2023-02-18T02:53:05;3.67;;;2.27;;
10347;SDS011;5220;43.192;23.284;2023-02-18T02:55:39;4.90;;;3.00;;
10347;SDS011;5220;43.192;23.284;2023-02-18T02:58:08;5.73;;;3.80;;
10347;SDS011;5220;43.192;23.284;2023-02-18T03:00:41;4.37;;;3.07;;
10347;SDS011;5220;43.192;23.284;2023-02-18T03:03:29;4.23;;;2.03;;
10347;SDS011;5220;43.192;23.284;2023-02-18T03:06:10;3.83;;;2.13;;
10347;SDS011;5220;43.192;23.284;2023-02-18T03:08:55;2.17;;;1.87;;
10347;SDS011;5220;43.192;23.284;2023-02-18T03:11:28;3.27;;;1.90;;
10347;SDS011;5220;43.192;23.284;2023-02-18T03:14:02;3.37;;;1.80;;
10347;SDS011;5220;43.192;23.284;2023-02-18T03:16:38;2.33;;;1.47;;
10347;SDS011;5220;43.192;23.284;2023-02-18T03:19:13;3.47;;;2.00;;
10347;SDS011;5220;43.192;23.284;2023-02-18T03:21:48;1.73;;;1.53;;
10347;SDS011;5220;43.192;23.284;2023-02-18T03:24:19;2.37;;;2.00;;
10347;SDS011;5220;43.192;23.284;2023-02-18T03:26:51;3.83;;;2.47;;
10347;SDS011;5220;43.192;23.284;2023-02-18T03:29:22;6.43;;;2.90;;
10347;SDS011;5220;43.192;23.284;2023-02-18T03:31:51;7.67;;;2.70;;
10347;SDS011;5220;43.192;23.284;2023-02-18T03:34:22;5.27;;;3.10;;
10347;SDS011;5220;43.192;23.284;2023-02-18T03:36:54;2.20;;;2.00;;
10347;SDS011;5220;43.192;23.284;2023-02-18T03:39:23;3.87;;;1.70;;
10347;SDS011;5220;43.192;23.284;2023-02-18T03:41:53;2.53;;;1.53;;
10347;SDS011;5220;43.192;23.284;2023-02-18T03:44:20;1.53;;;1.43;;
10347;SDS011;5220;43.192;23.284;2023-02-18T03:46:47;2.77;;;1.50;;
10347;SDS011;5220;43.192;23.284;2023-02-18T03:49:14;1.40;;;1.27;;
10347;SDS011;5220;43.192;23.284;2023-02-18T03:51:41;2.10;;;1.43;;
10347;SDS011;5220;43.192;23.284;2023-02-18T03:54:09;2.67;;;1.40;;
10347;SDS011;5220;43.192;23.284;2023-02-18T03:56:38;2.30;;;1.27;;
10347;SDS011;5220;43.192;23.284;2023-02-18T03:59:06;1.98;;;1.08;;
10347;SDS011;5220;43.192;23.284;2023-02-18T04:01:33;1.48;;;1.10;;
10347;SDS011;5220;43.192;23.284;2023-02-18T04:04:00;1.65;;;1.40;;
10347;SDS011;5220;43.192;23.284;2023-02-18T04:06:28;5.38;;;1.40;;
10347;SDS011;5220;43.192;23.284;2023-02-18T04:08:54;2.17;;;1.20;;
10347;SDS011;5220;43.192;23.284;2023-02-18T04:11:22;2.90;;;1.48;;
10347;SDS011;5220;43.192;23.284;2023-02-18T04:13:49;3.40;;;1.40;;
10347;SDS011;5220;43.192;23.284;2023-02-18T04:16:16;1.42;;;1.23;;
10347;SDS011;5220;43.192;23.284;2023-02-18T04:18:43;3.03;;;1.23;;
10347;SDS011;5220;43.192;23.284;2023-02-18T04:21:09;1.73;;;1.20;;
10347;SDS011;5220;43.192;23.284;2023-02-18T04:23:36;1.13;;;1.02;;
10347;SDS011;5220;43.192;23.284;2023-02-18T04:26:03;2.00;;;1.85;;
10347;SDS011;5220;43.192;23.284;2023-02-18T04:28:31;1.85;;;1.70;;
10347;SDS011;5220;43.192;23.284;2023-02-18T04:30:58;3.38;;;1.60;;
10347;SDS011;5220;43.192;23.284;2023-02-18T04:33:25;1.40;;;1.30;;
10347;SDS011;5220;43.192;23.284;2023-02-18T04:35:51;1.58;;;1.27;;
10347;SDS011;5220;43.192;23.284;2023-02-18T04:38:18;1.63;;;1.20;;
10347;SDS011;5220;43.192;23.284;2023-02-18T04:40:45;2.47;;;1.70;;
10347;SDS011;5220;43.192;23.284;2023-02-18T04:43:11;4.30;;;2.05;;
10347;SDS011;5220;43.192;23.284;2023-02-18T04:45:40;2.42;;;1.80;;
10347;SDS011;5220;43.192;23.284;2023-02-18T04:48:06;3.08;;;2.13;;
10347;SDS011;5220;43.192;23.284;2023-02-18T04:50:33;5.13;;;2.50;;
10347;SDS011;5220;43.192;23.284;2023-02-18T04:53:00;4.18;;;2.72;;
10347;SDS011;5220;43.192;23.284;2023-02-18T04:55:27;3.78;;;2.22;;
10347;SDS011;5220;43.192;23.284;2023-02-18T04:57:54;2.67;;;1.98;;
10347;SDS011;5220;43.192;23.284;2023-02-18T05:00:21;2.85;;;2.30;;
10347;SDS011;5220;43.192;23.284;2023-02-18T05:02:49;8.10;;;2.03;;
10347;SDS011;5220;43.192;23.284;2023-02-18T05:05:15;4.93;;;2.50;;
10347;SDS011;5220;43.192;23.284;2023-02-18T05:07:42;2.70;;;2.50;;
10347;SDS011;5220;43.192;23.284;2023-02-18T05:10:09;3.42;;;2.50;;
10347;SDS011;5220;43.192;23.284;2023-02-18T05:12:39;2.40;;;2.20;;
10347;SDS011;5220;43.192;23.284;2023-02-18T05:15:06;4.35;;;2.50;;
10347;SDS011;5220;43.192;23.284;2023-02-18T05:17:34;2.60;;;2.40;;
10347;SDS011;5220;43.192;23.284;2023-02-18T05:20:02;3.15;;;2.60;;
10347;SDS011;5220;43.192;23.284;2023-02-18T05:22:29;2.35;;;2.08;;
10347;SDS011;5220;43.192;23.284;2023-02-18T05:24:56;34.22;;;19.60;;
10347;SDS011;5220;43.192;23.284;2023-02-18T05:27:22;10.00;;;5.78;;
10347;SDS011;5220;43.192;23.284;2023-02-18T05:29:49;8.32;;;5.55;;
10347;SDS011;5220;43.192;23.284;2023-02-18T05:32:16;10.48;;;6.75;;
10347;SDS011;5220;43.192;23.284;2023-02-18T05:34:42;8.77;;;4.75;;
10347;SDS011;5220;43.192;23.284;2023-02-18T05:37:10;9.88;;;5.40;;
10347;SDS011;5220;43.192;23.284;2023-02-18T05:39:38;3.92;;;3.50;;
10347;SDS011;5220;43.192;23.284;2023-02-18T05:42:05;8.32;;;7.50;;
10347;SDS011;5220;43.192;23.284;2023-02-18T05:44:32;9.60;;;8.63;;
10347;SDS011;5220;43.192;23.284;2023-02-18T05:47:00;4.80;;;4.40;;
10347;SDS011;5220;43.192;23.284;2023-02-18T05:49:28;5.50;;;3.72;;
10347;SDS011;5220;43.192;23.284;2023-02-18T05:51:56;5.10;;;4.63;;
10347;SDS011;5220;43.192;23.284;2023-02-18T05:54:25;9.80;;;8.90;;
10347;SDS011;5220;43.192;23.284;2023-02-18T05:56:52;7.95;;;6.43;;
10347;SDS011;5220;43.192;23.284;2023-02-18T05:59:19;6.03;;;5.43;;
10347;SDS011;5220;43.192;23.284;2023-02-18T06:01:46;3.95;;;3.53;;
10347;SDS011;5220;43.192;23.284;2023-02-18T06:04:13;3.60;;;3.30;;
10347;SDS011;5220;43.192;23.284;2023-02-18T06:06:40;4.15;;;2.92;;
10347;SDS011;5220;43.192;23.284;2023-02-18T06:09:07;3.83;;;2.25;;
10347;SDS011;5220;43.192;23.284;2023-02-18T06:11:36;3.97;;;2.22;;
10347;SDS011;5220;43.192;23.284;2023-02-18T06:14:03;2.60;;;1.75;;
10347;SDS011;5220;43.192;23.284;2023-02-18T06:16:30;2.03;;;1.70;;
10347;SDS011;5220;43.192;23.284;2023-02-18T06:18:57;1.60;;;1.45;;
10347;SDS011;5220;43.192;23.284;2023-02-18T06:21:24;1.50;;;1.30;;
10347;SDS011;5220;43.192;23.284;2023-02-18T06:23:51;4.10;;;2.80;;
10347;SDS011;5220;43.192;23.284;2023-02-18T06:26:17;4.93;;;2.80;;
10347;SDS011;5220;43.192;23.284;2023-02-18T06:28:45;3.25;;;2.95;;
10347;SDS011;5220;43.192;23.284;2023-02-18T06:31:12;4.35;;;3.88;;
10347;SDS011;5220;43.192;23.284;2023-02-18T06:33:39;8.73;;;5.95;;
10347;SDS011;5220;43.192;23.284;2023-02-18T06:36:07;12.68;;;8.00;;
10347;SDS011;5220;43.192;23.284;2023-02-18T06:38:36;7.85;;;5.13;;
10347;SDS011;5220;43.192;23.284;2023-02-18T06:41:04;4.57;;;3.47;;
10347;SDS011;5220;43.192;23.284;2023-02-18T06:43:31;6.45;;;4.80;;
10347;SDS011;5220;43.192;23.284;2023-02-18T06:45:59;8.50;;;6.32;;
10347;SDS011;5220;43.192;23.284;2023-02-18T06:48:26;8.63;;;5.80;;
10347;SDS011;5220;43.192;23.284;2023-02-18T06:50:53;7.00;;;4.47;;
10347;SDS011;5220;43.192;23.284;2023-02-18T06:53:20;4.40;;;3.15;;
10347;SDS011;5220;43.192;23.284;2023-02-18T06:55:46;4.93;;;2.67;;
10347;SDS011;5220;43.192;23.284;2023-02-18T06:58:14;1.98;;;1.42;;
10347;SDS011;5220;43.192;23.284;2023-02-18T07:00:42;3.25;;;2.20;;
10347;SDS011;5220;43.192;23.284;2023-02-18T07:03:11;2.40;;;2.00;;
10347;SDS011;5220;43.192;23.284;2023-02-18T07:05:40;3.33;;;2.50;;
10347;SDS011;5220;43.192;23.284;2023-02-18T07:08:07;4.47;;;3.03;;
10347;SDS011;5220;43.192;23.284;2023-02-18T07:10:34;6.82;;;3.42;;
10347;SDS011;5220;43.192;23.284;2023-02-18T07:13:00;4.07;;;2.92;;
10347;SDS011;5220;43.192;23.284;2023-02-18T07:15:27;3.83;;;2.92;;
10347;SDS011;5220;43.192;23.284;2023-02-18T07:17:54;8.52;;;5.50;;
10347;SDS011;5220;43.192;23.284;2023-02-18T07:20:22;12.45;;;8.02;;
10347;SDS011;5220;43.192;23.284;2023-02-18T07:22:49;8.40;;;6.22;;
10347;SDS011;5220;43.192;23.284;2023-02-18T07:25:16;14.48;;;9.32;;
10347;SDS011;5220;43.192;23.284;2023-02-18T07:27:43;9.45;;;4.43;;
10347;SDS011;5220;43.192;23.284;2023-02-18T07:30:10;5.25;;;3.42;;
10347;SDS011;5220;43.192;23.284;2023-02-18T07:32:37;18.05;;;12.82;;
10347;SDS011;5220;43.192;23.284;2023-02-18T07:35:04;8.45;;;6.80;;
10347;SDS011;5220;43.192;23.284;2023-02-18T07:37:33;6.00;;;5.40;;
10347;SDS011;5220;43.192;23.284;2023-02-18T07:39:59;5.75;;;3.67;;
10347;SDS011;5220;43.192;23.284;2023-02-18T07:42:26;8.77;;;6.63;;
10347;SDS011;5220;43.192;23.284;2023-02-18T07:44:53;15.68;;;9.10;;
10347;SDS011;5220;43.192;23.284;2023-02-18T07:47:19;8.73;;;7.40;;
10347;SDS011;5220;43.192;23.284;2023-02-18T07:49:46;8.20;;;6.70;;
10347;SDS011;5220;43.192;23.284;2023-02-18T07:52:13;9.48;;;6.32;;
10347;SDS011;5220;43.192;23.284;2023-02-18T07:54:42;26.98;;;16.35;;
10347;SDS011;5220;43.192;23.284;2023-02-18T07:57:08;26.80;;;17.80;;
10347;SDS011;5220;43.192;23.284;2023-02-18T07:59:35;10.50;;;5.47;;
10347;SDS011;5220;43.192;23.284;2023-02-18T08:02:02;14.43;;;9.52;;
10347;SDS011;5220;43.192;23.284;2023-02-18T08:04:29;15.07;;;9.68;;
10347;SDS011;5220;43.192;23.284;2023-02-18T08:06:56;22.63;;;11.10;;
10347;SDS011;5220;43.192;23.284;2023-02-18T08:09:22;16.00;;;9.90;;
10347;SDS011;5220;43.192;23.284;2023-02-18T08:11:50;16.02;;;9.25;;
10347;SDS011;5220;43.192;23.284;2023-02-18T08:14:17;15.13;;;9.05;;
10347;SDS011;5220;43.192;23.284;2023-02-18T08:16:44;16.40;;;10.75;;
10347;SDS011;5220;43.192;23.284;2023-02-18T08:19:10;13.52;;;10.18;;
10347;SDS011;5220;43.192;23.284;2023-02-18T08:21:37;11.05;;;8.18;;
10347;SDS011;5220;43.192;23.284;2023-02-18T08:24:04;11.05;;;7.65;;
10347;SDS011;5220;43.192;23.284;2023-02-18T08:26:32;11.45;;;7.78;;
10347;SDS011;5220;43.192;23.284;2023-02-18T08:29:00;12.85;;;8.13;;
10347;SDS011;5220;43.192;23.284;2023-02-18T08:31:27;11.68;;;8.68;;
10347;SDS011;5220;43.192;23.284;2023-02-18T08:33:56;11.20;;;8.55;;
10347;SDS011;5220;43.192;23.284;2023-02-18T08:36:24;17.45;;;11.23;;
10347;SDS011;5220;43.192;23.284;2023-02-18T08:38:51;50.08;;;11.88;;
10347;SDS011;5220;43.192;23.284;2023-02-18T08:41:18;17.88;;;11.27;;
10347;SDS011;5220;43.192;23.284;2023-02-18T08:43:45;19.13;;;11.65;;
10347;SDS011;5220;43.192;23.284;2023-02-18T08:46:15;16.25;;;11.10;;
10347;SDS011;5220;43.192;23.284;2023-02-18T08:48:42;20.42;;;13.27;;
10347;SDS011;5220;43.192;23.284;2023-02-18T08:51:13;19.60;;;13.95;;
10347;SDS011;5220;43.192;23.284;2023-02-18T08:53:42;18.98;;;13.27;;
10347;SDS011;5220;43.192;23.284;2023-02-18T08:56:10;27.70;;;18.15;;
10347;SDS011;5220;43.192;23.284;2023-02-18T08:58:37;21.88;;;15.55;;
10347;SDS011;5220;43.192;23.284;2023-02-18T09:01:04;19.45;;;14.55;;
10347;SDS011;5220;43.192;23.284;2023-02-18T09:03:35;31.13;;;23.58;;
10347;SDS011;5220;43.192;23.284;2023-02-18T09:06:02;33.50;;;25.85;;
10347;SDS011;5220;43.192;23.284;2023-02-18T09:08:29;54.60;;;39.08;;
10347;SDS011;5220;43.192;23.284;2023-02-18T09:10:56;55.05;;;41.88;;
10347;SDS011;5220;43.192;23.284;2023-02-18T09:13:23;55.17;;;40.70;;
10347;SDS011;5220;43.192;23.284;2023-02-18T09:15:56;56.28;;;41.53;;
10347;SDS011;5220;43.192;23.284;2023-02-18T09:18:23;47.40;;;35.17;;
10347;SDS011;5220;43.192;23.284;2023-02-18T09:20:54;48.85;;;34.80;;
10347;SDS011;5220;43.192;23.284;2023-02-18T09:23:22;39.92;;;31.20;;
10347;SDS011;5220;43.192;23.284;2023-02-18T09:25:49;38.40;;;29.70;;
10347;SDS011;5220;43.192;23.284;2023-02-18T09:28:16;33.55;;;24.67;;
10347;SDS011;5220;43.192;23.284;2023-02-18T09:30:43;36.60;;;25.38;;
10347;SDS011;5220;43.192;23.284;2023-02-18T09:33:09;31.67;;;24.35;;
10347;SDS011;5220;43.192;23.284;2023-02-18T09:35:37;18.85;;;9.68;;
10347;SDS011;5220;43.192;23.284;2023-02-18T09:38:07;11.85;;;7.60;;
10347;SDS011;5220;43.192;23.284;2023-02-18T09:40:34;17.30;;;9.93;;
10347;SDS011;5220;43.192;23.284;2023-02-18T09:43:04;16.55;;;8.05;;
10347;SDS011;5220;43.192;23.284;2023-02-18T09:45:32;8.30;;;5.03;;
10347;SDS011;5220;43.192;23.284;2023-02-18T09:47:59;10.40;;;6.07;;
10347;SDS011;5220;43.192;23.284;2023-02-18T09:50:30;8.68;;;5.03;;
10347;SDS011;5220;43.192;23.284;2023-02-18T09:52:59;6.82;;;4.35;;
10347;SDS011;5220;43.192;23.284;2023-02-18T09:55:29;8.68;;;5.32;;
10347;SDS011;5220;43.192;23.284;2023-02-18T09:57:58;22.52;;;16.65;;
10347;SDS011;5220;43.192;23.284;2023-02-18T10:00:28;5.95;;;4.95;;
10347;SDS011;5220;43.192;23.284;2023-02-18T10:03:00;12.50;;;9.15;;
10347;SDS011;5220;43.192;23.284;2023-02-18T10:05:30;12.32;;;7.57;;
10347;SDS011;5220;43.192;23.284;2023-02-18T10:07:59;10.82;;;5.57;;
10347;SDS011;5220;43.192;23.284;2023-02-18T10:10:32;7.72;;;5.30;;
10347;SDS011;5220;43.192;23.284;2023-02-18T10:13:05;8.10;;;4.65;;
10347;SDS011;5220;43.192;23.284;2023-02-18T10:15:37;4.20;;;3.35;;
10347;SDS011;5220;43.192;23.284;2023-02-18T10:18:04;6.95;;;4.55;;
10347;SDS011;5220;43.192;23.284;2023-02-18T10:20:41;6.00;;;4.32;;
10347;SDS011;5220;43.192;23.284;2023-02-18T10:23:08;8.05;;;4.72;;
10347;SDS011;5220;43.192;23.284;2023-02-18T10:25:43;8.20;;;5.07;;
10347;SDS011;5220;43.192;23.284;2023-02-18T10:28:11;10.57;;;5.70;;
10347;SDS011;5220;43.192;23.284;2023-02-18T10:30:39;8.98;;;5.32;;
10347;SDS011;5220;43.192;23.284;2023-02-18T10:33:14;8.48;;;4.47;;
10347;SDS011;5220;43.192;23.284;2023-02-18T10:35:52;9.18;;;5.13;;
10347;SDS011;5220;43.192;23.284;2023-02-18T10:38:24;7.80;;;6.05;;
10347;SDS011;5220;43.192;23.284;2023-02-18T10:41:02;14.43;;;6.95;;
10347;SDS011;5220;43.192;23.284;2023-02-18T10:43:37;6.47;;;4.25;;
10347;SDS011;5220;43.192;23.284;2023-02-18T10:46:12;9.32;;;6.03;;
10347;SDS011;5220;43.192;23.284;2023-02-18T10:48:54;9.65;;;6.50;;
10347;SDS011;5220;43.192;23.284;2023-02-18T10:51:31;12.32;;;7.93;;
10347;SDS011;5220;43.192;23.284;2023-02-18T10:54:00;11.73;;;7.50;;
10347;SDS011;5220;43.192;23.284;2023-02-18T10:56:33;18.40;;;12.20;;
10347;SDS011;5220;43.192;23.284;2023-02-18T10:59:09;13.80;;;7.90;;
10347;SDS011;5220;43.192;23.284;2023-02-18T11:01:38;9.88;;;5.63;;
10347;SDS011;5220;43.192;23.284;2023-02-18T11:04:10;30.48;;;16.42;;
10347;SDS011;5220;43.192;23.284;2023-02-18T11:06:40;71.90;;;20.40;;
10347;SDS011;5220;43.192;23.284;2023-02-18T11:09:20;10.90;;;6.35;;
10347;SDS011;5220;43.192;23.284;2023-02-18T11:11:58;13.65;;;7.00;;
10347;SDS011;5220;43.192;23.284;2023-02-18T11:14:37;17.98;;;8.13;;
10347;SDS011;5220;43.192;23.284;2023-02-18T11:17:08;34.40;;;8.23;;
10347;SDS011;5220;43.192;23.284;2023-02-18T11:19:41;32.33;;;8.88;;
10347;SDS011;5220;43.192;23.284;2023-02-18T11:22:13;28.20;;;7.03;;
10347;SDS011;5220;43.192;23.284;2023-02-18T11:24:43;27.65;;;7.32;;
10347;SDS011;5220;43.192;23.284;2023-02-18T11:27:16;10.43;;;4.40;;
10347;SDS011;5220;43.192;23.284;2023-02-18T11:29:48;26.13;;;7.15;;
10347;SDS011;5220;43.192;23.284;2023-02-18T11:32:17;4.85;;;3.70;;
10347;SDS011;5220;43.192;23.284;2023-02-18T11:34:44;84.45;;;10.68;;
10347;SDS011;5220;43.192;23.284;2023-02-18T11:37:15;18.17;;;5.90;;
10347;SDS011;5220;43.192;23.284;2023-02-18T11:39:45;50.13;;;13.90;;
10347;SDS011;5220;43.192;23.284;2023-02-18T11:42:17;7.50;;;3.95;;
10347;SDS011;5220;43.192;23.284;2023-02-18T11:44:49;30.60;;;5.63;;
10347;SDS011;5220;43.192;23.284;2023-02-18T11:47:20;12.98;;;9.63;;
10347;SDS011;5220;43.192;23.284;2023-02-18T11:50:00;5.72;;;3.40;;
10347;SDS011;5220;43.192;23.284;2023-02-18T11:52:40;4.75;;;2.55;;
10347;SDS011;5220;43.192;23.284;2023-02-18T11:55:13;3.15;;;2.40;;
10347;SDS011;5220;43.192;23.284;2023-02-18T11:57:44;14.18;;;4.18;;
10347;SDS011;5220;43.192;23.284;2023-02-18T12:00:15;6.57;;;3.60;;
10347;SDS011;5220;43.192;23.284;2023-02-18T12:02:46;23.85;;;5.32;;
10347;SDS011;5220;43.192;23.284;2023-02-18T12:05:15;9.13;;;2.30;;
10347;SDS011;5220;43.192;23.284;2023-02-18T12:07:45;5.55;;;2.70;;
10347;SDS011;5220;43.192;23.284;2023-02-18T12:10:17;14.38;;;4.10;;
10347;SDS011;5220;43.192;23.284;2023-02-18T12:12:51;11.85;;;3.22;;
10347;SDS011;5220;43.192;23.284;2023-02-18T12:15:25;7.78;;;3.97;;
10347;SDS011;5220;43.192;23.284;2023-02-18T12:18:19;3.83;;;3.17;;
10347;SDS011;5220;43.192;23.284;2023-02-18T12:21:09;2.50;;;1.58;;
10347;SDS011;5220;43.192;23.284;2023-02-18T12:23:46;2.60;;;1.80;;
10347;SDS011;5220;43.192;23.284;2023-02-18T12:26:23;4.10;;;1.70;;
10347;SDS011;5220;43.192;23.284;2023-02-18T12:29:00;2.92;;;2.10;;
10347;SDS011;5220;43.192;23.284;2023-02-18T12:34:38;5.35;;;1.52;;
10347;SDS011;5220;43.192;23.284;2023-02-18T12:37:23;3.58;;;2.25;;
10347;SDS011;5220;43.192;23.284;2023-02-18T12:40:07;3.15;;;1.65;;
10347;SDS011;5220;43.192;23.284;2023-02-18T12:42:50;4.70;;;4.25;;
10347;SDS011;5220;43.192;23.284;2023-02-18T12:45:33;4.47;;;3.63;;
10347;SDS011;5220;43.192;23.284;2023-02-18T12:48:15;3.17;;;2.20;;
10347;SDS011;5220;43.192;23.284;2023-02-18T12:50:59;2.35;;;2.15;;
10347;SDS011;5220;43.192;23.284;2023-02-18T12:53:40;4.70;;;2.33;;
10347;SDS011;5220;43.192;23.284;2023-02-18T12:56:29;11.07;;;2.90;;
10347;SDS011;5220;43.192;23.284;2023-02-18T12:59:07;2.15;;;1.95;;
10347;SDS011;5220;43.192;23.284;2023-02-18T13:01:44;10.63;;;3.90;;
10347;SDS011;5220;43.192;23.284;2023-02-18T13:04:23;7.38;;;4.25;;
10347;SDS011;5220;43.192;23.284;2023-02-18T13:07:10;3.97;;;2.00;;
10347;SDS011;5220;43.192;23.284;2023-02-18T13:09:57;6.30;;;3.38;;
10347;SDS011;5220;43.192;23.284;2023-02-18T13:12:36;3.17;;;2.83;;
10347;SDS011;5220;43.192;23.284;2023-02-18T13:15:12;5.13;;;3.88;;
10347;SDS011;5220;43.192;23.284;2023-02-18T13:17:45;4.93;;;2.78;;
10347;SDS011;5220;43.192;23.284;2023-02-18T13:20:17;8.23;;;2.78;;
10347;SDS011;5220;43.192;23.284;2023-02-18T13:22:47;4.47;;;2.70;;
10347;SDS011;5220;43.192;23.284;2023-02-18T13:25:15;15.25;;;3.10;;
10347;SDS011;5220;43.192;23.284;2023-02-18T13:27:44;5.57;;;3.67;;
10347;SDS011;5220;43.192;23.284;2023-02-18T13:30:20;16.98;;;4.18;;
10347;SDS011;5220;43.192;23.284;2023-02-18T13:32:56;12.43;;;4.82;;
10347;SDS011;5220;43.192;23.284;2023-02-18T13:35:33;10.45;;;5.03;;
10347;SDS011;5220;43.192;23.284;2023-02-18T13:38:11;6.20;;;2.75;;
10347;SDS011;5220;43.192;23.284;2023-02-18T13:40:52;7.28;;;3.55;;
10347;SDS011;5220;43.192;23.284;2023-02-18T13:43:27;10.27;;;3.80;;
10347;SDS011;5220;43.192;23.284;2023-02-18T13:46:08;11.82;;;3.67;;
10347;SDS011;5220;43.192;23.284;2023-02-18T13:48:43;13.40;;;3.80;;
10347;SDS011;5220;43.192;23.284;2023-02-18T13:51:13;6.07;;;5.05;;
10347;SDS011;5220;43.192;23.284;2023-02-18T13:53:42;3.50;;;3.13;;
10347;SDS011;5220;43.192;23.284;2023-02-18T13:56:19;6.70;;;2.47;;
10347;SDS011;5220;43.192;23.284;2023-02-18T13:58:48;5.05;;;2.65;;
10347;SDS011;5220;43.192;23.284;2023-02-18T14:01:20;11.40;;;4.85;;
10347;SDS011;5220;43.192;23.284;2023-02-18T14:03:54;5.28;;;3.25;;
10347;SDS011;5220;43.192;23.284;2023-02-18T14:06:24;8.40;;;6.43;;
10347;SDS011;5220;43.192;23.284;2023-02-18T14:09:01;8.50;;;5.93;;
10347;SDS011;5220;43.192;23.284;2023-02-18T14:11:47;6.68;;;4.25;;
10347;SDS011;5220;43.192;23.284;2023-02-18T14:14:32;9.95;;;5.35;;
10347;SDS011;5220;43.192;23.284;2023-02-18T14:17:12;10.43;;;6.88;;
10347;SDS011;5220;43.192;23.284;2023-02-18T14:19:55;15.43;;;11.85;;
10347;SDS011;5220;43.192;23.284;2023-02-18T14:22:54;38.33;;;25.23;;
10347;SDS011;5220;43.192;23.284;2023-02-18T14:25:21;19.20;;;8.48;;
10347;SDS011;5220;43.192;23.284;2023-02-18T14:28:00;38.58;;;12.65;;
10347;SDS011;5220;43.192;23.284;2023-02-18T14:30:30;45.10;;;12.10;;
10347;SDS011;5220;43.192;23.284;2023-02-18T14:33:03;20.25;;;16.23;;
10347;SDS011;5220;43.192;23.284;2023-02-18T14:35:32;12.65;;;8.93;;
10347;SDS011;5220;43.192;23.284;2023-02-18T14:38:18;15.65;;;9.80;;
10347;SDS011;5220;43.192;23.284;2023-02-18T14:41:13;15.57;;;8.35;;
10347;SDS011;5220;43.192;23.284;2023-02-18T14:46:56;10.48;;;8.00;;
10347;SDS011;5220;43.192;23.284;2023-02-18T14:49:37;13.65;;;8.18;;
10347;SDS011;5220;43.192;23.284;2023-02-18T14:52:11;11.88;;;8.07;;
10347;SDS011;5220;43.192;23.284;2023-02-18T14:54:45;10.15;;;8.25;;
10347;SDS011;5220;43.192;23.284;2023-02-18T14:57:13;17.67;;;9.05;;
10347;SDS011;5220;43.192;23.284;2023-02-18T14:59:43;22.00;;;9.82;;
10347;SDS011;5220;43.192;23.284;2023-02-18T15:02:15;29.73;;;13.38;;
10347;SDS011;5220;43.192;23.284;2023-02-18T15:04:45;25.45;;;14.88;;
10347;SDS011;5220;43.192;23.284;2023-02-18T15:07:13;39.38;;;14.95;;
10347;SDS011;5220;43.192;23.284;2023-02-18T15:09:44;34.50;;;11.95;;
10347;SDS011;5220;43.192;23.284;2023-02-18T15:12:13;25.42;;;12.32;;
10347;SDS011;5220;43.192;23.284;2023-02-18T15:14:43;27.95;;;11.73;;